Time;durP1;ratioP1;P1;durP2;ratioP2;P2;SDS_P1;SDS_P2;PMS_P1;PMS_P2;Temp;Humidity;BMP_temperature;BMP_pressure;BME280_temperature;BME280_humidity;BME280_pressure;Samples;Min_cycle;Max_cycle;Signal;HPM_P1;HPM_P2
2023/11/06 00:07:08;;;;;;;2;0.7;;;;;;;11.25;72;;;;;
2023/11/06 00:17:08;;;;;;;1.7;0.8;;;;;;;11.4;71.78;;;;;
2023/11/06 00:28:08;;;;;;;1.7;0.8;;;;;;;11.65;70.55;;;;;
2023/11/06 00:38:11;;;;;;;1.7;0.8;;;;;;;11.79;70.73;;;;;
2023/11/06 00:48:08;;;;;;;2;0.9;;;;;;;12;69.66;;;;;
2023/11/06 00:59:08;;;;;;;2;0.9;;;;;;;12.06;70.7;;;;;
2023/11/06 01:10:08;;;;;;;2;0.9;;;;;;;12.07;69.89;;;;;
2023/11/06 01:20:08;;;;;;;1;0.6;;;;;;;12.15;69.18;;;;;
2023/11/06 01:31:08;;;;;;;1;0.6;;;;;;;12.2;68.56;;;;;
2023/11/06 01:41:08;;;;;;;1.5;0.5;;;;;;;12.21;68.17;;;;;
2023/11/06 01:51:08;;;;;;;1.5;0.5;;;;;;;12.19;67.46;;;;;
2023/11/06 02:02:08;;;;;;;1.5;0.5;;;;;;;12.13;67.22;;;;;
2023/11/06 02:12:08;;;;;;;1.4;0.5;;;;;;;12.12;67.4;;;;;
2023/11/06 02:23:08;;;;;;;1.4;0.5;;;;;;;12;67.6;;;;;
2023/11/06 02:33:08;;;;;;;1.4;0.5;;;;;;;11.94;67.46;;;;;
2023/11/06 02:43:08;;;;;;;1.4;0.5;;;;;;;11.85;67.81;;;;;
2023/11/06 02:53:08;;;;;;;1.4;0.5;;;;;;;11.77;67.65;;;;;
2023/11/06 03:04:12;;;;;;;1.4;0.5;;;;;;;11.72;67.11;;;;;
2023/11/06 03:15:10;;;;;;;1;0.5;;;;;;;11.69;66.69;;;;;
2023/11/06 03:26:08;;;;;;;1;0.5;;;;;;;11.62;66.8;;;;;
2023/11/06 03:36:08;;;;;;;1;0.5;;;;;;;11.58;65.89;;;;;
2023/11/06 03:46:08;;;;;;;1.3;0.5;;;;;;;11.48;66.04;;;;;
2023/11/06 03:56:09;;;;;;;1.3;0.5;;;;;;;11.19;66.27;;;;;
2023/11/06 04:07:10;;;;;;;1.3;0.5;;;;;;;10.91;66.37;;;;;
2023/11/06 04:18:08;;;;;;;1.4;0.7;;;;;;;10.9;66.04;;;;;
2023/11/06 04:28:09;;;;;;;1.4;0.7;;;;;;;10.69;65.93;;;;;
2023/11/06 04:39:09;;;;;;;1.4;0.7;;;;;;;10.53;65.56;;;;;
2023/11/06 04:50:08;;;;;;;1.5;0.8;;;;;;;10.32;65.63;;;;;
2023/11/06 05:01:08;;;;;;;1.5;0.8;;;;;;;10.16;66.2;;;;;
2023/11/06 05:12:09;;;;;;;1.4;0.7;;;;;;;10.05;65.72;;;;;
2023/11/06 05:23:08;;;;;;;1.4;0.7;;;;;;;9.86;66.49;;;;;
2023/11/06 05:33:08;;;;;;;1.4;0.7;;;;;;;10;65.57;;;;;
2023/11/06 05:43:09;;;;;;;2;0.7;;;;;;;9.95;65.56;;;;;
2023/11/06 05:53:08;;;;;;;2;0.7;;;;;;;9.85;66.15;;;;;
2023/11/06 06:03:08;;;;;;;2;0.7;;;;;;;9.96;65.02;;;;;
2023/11/06 06:13:09;;;;;;;1.2;0.8;;;;;;;9.96;64.88;;;;;
2023/11/06 06:24:08;;;;;;;1.2;0.8;;;;;;;10.02;64.72;;;;;
2023/11/06 06:35:08;;;;;;;1.2;0.8;;;;;;;10.28;64.63;;;;;
2023/11/06 06:46:08;;;;;;;1.7;0.7;;;;;;;10.43;64.07;;;;;
2023/11/06 06:57:09;;;;;;;1.7;0.7;;;;;;;10.75;63.62;;;;;
2023/11/06 07:07:09;;;;;;;1.7;0.7;;;;;;;11.21;63.17;;;;;
2023/11/06 07:17:08;;;;;;;2.4;0.7;;;;;;;11.47;63.15;;;;;
2023/11/06 07:27:08;;;;;;;2.4;0.7;;;;;;;11.58;61.94;;;;;
2023/11/06 07:38:09;;;;;;;2.4;0.7;;;;;;;11.68;61.85;;;;;
2023/11/06 07:48:08;;;;;;;2.4;0.9;;;;;;;11.63;62.46;;;;;
2023/11/06 07:58:08;;;;;;;2.4;0.9;;;;;;;11.7;62.57;;;;;
2023/11/06 08:08:09;;;;;;;2.4;0.9;;;;;;;11.92;61.88;;;;;
2023/11/06 08:19:08;;;;;;;2.3;1.2;;;;;;;12.3;60.63;;;;;
2023/11/06 08:29:09;;;;;;;2.3;1.2;;;;;;;12.56;60.47;;;;;
2023/11/06 08:39:09;;;;;;;2.3;1.2;;;;;;;12.76;59.5;;;;;
2023/11/06 08:50:08;;;;;;;1.7;0.9;;;;;;;12.85;60.19;;;;;
2023/11/06 09:00:09;;;;;;;1.7;0.9;;;;;;;12.98;57.87;;;;;
2023/11/06 09:10:09;;;;;;;1.7;0.9;;;;;;;13.16;56.84;;;;;
2023/11/06 09:21:13;;;;;;;4;1.1;;;;;;;13.01;55.76;;;;;
2023/11/06 09:32:08;;;;;;;4;1.1;;;;;;;12.82;56.74;;;;;
2023/11/06 09:42:08;;;;;;;2.2;0.9;;;;;;;12.49;57.84;;;;;
2023/11/06 09:52:08;;;;;;;2.2;0.9;;;;;;;12.68;58.18;;;;;
2023/11/06 10:03:08;;;;;;;2.2;0.9;;;;;;;13.07;57.1;;;;;
2023/11/06 10:14:08;;;;;;;2.4;0.7;;;;;;;13.33;55.87;;;;;
2023/11/06 10:25:08;;;;;;;2.4;0.7;;;;;;;12.99;56.52;;;;;
2023/11/06 10:36:09;;;;;;;2.4;0.7;;;;;;;13.07;56.42;;;;;
2023/11/06 10:47:09;;;;;;;3;1.2;;;;;;;13.14;57.19;;;;;
2023/11/06 10:58:09;;;;;;;3;1.2;;;;;;;13;57.4;;;;;
2023/11/06 11:08:09;;;;;;;3;1.2;;;;;;;13.11;57.2;;;;;
2023/11/06 11:18:09;;;;;;;3;1.1;;;;;;;13.66;56.65;;;;;
2023/11/06 11:29:10;;;;;;;3;1.1;;;;;;;13.85;54.12;;;;;
2023/11/06 11:39:13;;;;;;;3;1.1;;;;;;;14.08;54.65;;;;;
2023/11/06 11:50:08;;;;;;;2.2;0.9;;;;;;;14.4;53.09;;;;;
2023/11/06 12:01:09;;;;;;;2.2;0.9;;;;;;;13.95;54.21;;;;;
2023/11/06 12:11:09;;;;;;;3.2;1.1;;;;;;;13.46;55.98;;;;;
2023/11/06 12:21:09;;;;;;;3.2;1.1;;;;;;;13.41;56.77;;;;;
2023/11/06 12:32:09;;;;;;;3.2;1.1;;;;;;;13.53;57.67;;;;;
2023/11/06 12:42:09;;;;;;;3.6;1.6;;;;;;;13.55;57.93;;;;;
2023/11/06 12:52:09;;;;;;;3.6;1.6;;;;;;;13.55;57.72;;;;;
2023/11/06 13:03:11;;;;;;;3.6;1.6;;;;;;;13.44;58.58;;;;;
2023/11/06 13:14:09;;;;;;;4.7;1.8;;;;;;;13.61;58.65;;;;;
2023/11/06 13:24:09;;;;;;;4.7;1.8;;;;;;;13.6;59.54;;;;;
2023/11/06 13:34:09;;;;;;;4.7;1.8;;;;;;;13.94;58.47;;;;;
2023/11/06 13:45:09;;;;;;;4.5;1.9;;;;;;;13.66;59.58;;;;;
2023/11/06 13:56:18;;;;;;;4.5;1.9;;;;;;;13.21;60.57;;;;;
2023/11/06 14:06:16;;;;;;;4.5;1.9;;;;;;;13.15;61.02;;;;;
2023/11/06 14:17:10;;;;;;;4.2;1.9;;;;;;;12.92;61.53;;;;;
2023/11/06 14:28:09;;;;;;;4.2;1.9;;;;;;;12.71;61.74;;;;;
2023/11/06 14:39:13;;;;;;;4.2;1.9;;;;;;;12.44;62.68;;;;;
2023/11/06 14:50:09;;;;;;;4.4;1.9;;;;;;;12.42;62.72;;;;;
2023/11/06 15:01:10;;;;;;;4.4;1.9;;;;;;;12.35;62.59;;;;;
2023/11/06 15:12:11;;;;;;;5.5;1.6;;;;;;;12.21;63.35;;;;;
2023/11/06 15:22:09;;;;;;;5.5;1.6;;;;;;;12.12;63.95;;;;;
2023/11/06 15:32:09;;;;;;;5.5;1.6;;;;;;;12.03;64.32;;;;;
2023/11/06 15:42:09;;;;;;;4.7;1.9;;;;;;;11.98;64.35;;;;;
2023/11/06 15:52:11;;;;;;;4.7;1.9;;;;;;;11.97;65.33;;;;;
2023/11/06 16:03:09;;;;;;;4.7;1.9;;;;;;;11.74;66.79;;;;;
2023/11/06 16:13:09;;;;;;;7.4;3.4;;;;;;;11.47;68.23;;;;;
2023/11/06 16:23:09;;;;;;;7.4;3.4;;;;;;;11.44;67.65;;;;;
2023/11/06 16:34:09;;;;;;;7.4;3.4;;;;;;;11.37;70;;;;;
2023/11/06 16:44:10;;;;;;;9.8;3.7;;;;;;;10.94;72.14;;;;;
2023/11/06 16:54:09;;;;;;;9.8;3.7;;;;;;;10.85;71.49;;;;;
2023/11/06 17:05:09;;;;;;;9.8;3.7;;;;;;;10.73;70.13;;;;;
2023/11/06 17:15:09;;;;;;;8;3.2;;;;;;;10.59;70.53;;;;;
2023/11/06 17:25:09;;;;;;;8;3.2;;;;;;;10.53;70.78;;;;;
2023/11/06 17:35:09;;;;;;;8;3.2;;;;;;;10.29;70.51;;;;;
2023/11/06 17:45:09;;;;;;;5.6;3.4;;;;;;;9.93;70.61;;;;;
2023/11/06 17:56:09;;;;;;;5.6;3.4;;;;;;;9.53;70.64;;;;;
2023/11/06 18:07:09;;;;;;;5.6;3.4;;;;;;;9.25;71.74;;;;;
2023/11/06 18:17:09;;;;;;;6.9;3.5;;;;;;;8.97;72.59;;;;;
2023/11/06 18:27:09;;;;;;;6.9;3.5;;;;;;;8.92;73.75;;;;;
2023/11/06 18:37:11;;;;;;;6.9;3.5;;;;;;;8.87;74.03;;;;;
2023/11/06 18:47:10;;;;;;;7.3;3.4;;;;;;;8.6;73.78;;;;;
2023/11/06 18:57:09;;;;;;;7.3;3.4;;;;;;;8.39;74.32;;;;;
2023/11/06 19:08:10;;;;;;;7.3;3.4;;;;;;;8.11;74.75;;;;;
2023/11/06 19:19:09;;;;;;;7.4;2.8;;;;;;;7.82;75.56;;;;;
2023/11/06 19:29:09;;;;;;;7.4;2.8;;;;;;;7.55;76.12;;;;;
2023/11/06 19:40:09;;;;;;;10.9;4.7;;;;;;;7.31;76.79;;;;;
2023/11/06 19:51:09;;;;;;;10.9;4.7;;;;;;;7.03;77.54;;;;;
2023/11/06 20:02:09;;;;;;;10.9;4.7;;;;;;;6.86;78.21;;;;;
2023/11/06 20:13:09;;;;;;;10.4;4.3;;;;;;;6.63;78.92;;;;;
2023/11/06 20:23:09;;;;;;;10.4;4.3;;;;;;;6.5;79.63;;;;;
2023/11/06 20:33:09;;;;;;;10.4;4.3;;;;;;;6.47;79.98;;;;;
2023/11/06 20:44:09;;;;;;;5.8;3.2;;;;;;;6.44;80.46;;;;;
2023/11/06 20:55:09;;;;;;;5.8;3.2;;;;;;;6.41;80.79;;;;;
2023/11/06 21:06:09;;;;;;;5.8;3.2;;;;;;;6.35;81.26;;;;;
2023/11/06 21:16:09;;;;;;;7.3;2.9;;;;;;;6.4;82.64;;;;;
2023/11/06 21:26:11;;;;;;;7.3;2.9;;;;;;;6.98;82.6;;;;;
2023/11/06 21:37:10;;;;;;;7.3;2.9;;;;;;;7.45;81.04;;;;;
2023/11/06 21:47:13;;;;;;;4.8;2.7;;;;;;;7.53;80.3;;;;;
2023/11/06 21:58:09;;;;;;;4.8;2.7;;;;;;;7.76;79.42;;;;;
2023/11/06 22:09:09;;;;;;;4.8;2.7;;;;;;;7.84;78.56;;;;;
2023/11/06 22:20:09;;;;;;;5.6;2.6;;;;;;;7.73;77.77;;;;;
2023/11/06 22:30:09;;;;;;;5.6;2.6;;;;;;;7.53;78.42;;;;;
2023/11/06 22:41:09;;;;;;;6.8;2.5;;;;;;;7.5;78.58;;;;;
2023/11/06 22:52:09;;;;;;;6.8;2.5;;;;;;;7.31;78.46;;;;;
2023/11/06 23:02:09;;;;;;;6.8;2.5;;;;;;;7.06;78.05;;;;;
2023/11/06 23:13:09;;;;;;;6.9;3.3;;;;;;;6.76;78.31;;;;;
2023/11/06 23:23:10;;;;;;;6.9;3.3;;;;;;;6.59;79.2;;;;;
2023/11/06 23:33:09;;;;;;;6.9;3.3;;;;;;;6.45;79.39;;;;;
2023/11/06 23:43:09;;;;;;;5.4;2.4;;;;;;;6.23;80.21;;;;;
2023/11/06 23:53:09;;;;;;;5.4;2.4;;;;;;;6.24;81.33;;;;;
